createdAt,value
2023-03-03T00:01:18.638Z,98470.94
2023-03-03T00:03:45.748Z,98474.72
2023-03-03T00:06:14.611Z,98477.19
2023-03-03T00:08:41.302Z,98474.56
2023-03-03T00:11:08.168Z,98477.84
2023-03-03T00:13:42.502Z,98477.00
2023-03-03T00:16:30.662Z,98481.59
2023-03-03T00:18:58.316Z,98479.13
2023-03-03T00:21:30.470Z,98476.19
2023-03-03T00:24:12.375Z,98471.16
2023-03-03T00:26:41.844Z,98476.22
2023-03-03T00:29:27.043Z,98480.66
2023-03-03T00:31:54.116Z,98481.19
2023-03-03T00:34:27.079Z,98481.19
2023-03-03T00:36:56.290Z,98478.25
2023-03-03T00:39:35.699Z,98480.19
2023-03-03T00:42:04.336Z,98480.53
2023-03-03T00:44:35.654Z,98487.69
2023-03-03T00:47:13.972Z,98488.53
2023-03-03T00:49:41.486Z,98487.84
2023-03-03T00:52:16.124Z,98483.63
2023-03-03T00:54:42.886Z,98487.53
2023-03-03T00:57:10.227Z,98478.59
2023-03-03T00:59:36.785Z,98481.84
2023-03-03T01:02:03.381Z,98485.41
2023-03-03T01:04:29.948Z,98484.13
2023-03-03T01:06:56.557Z,98488.03
2023-03-03T01:09:23.668Z,98486.56
2023-03-03T01:11:51.673Z,98494.22
2023-03-03T01:14:18.394Z,98483.31
2023-03-03T01:16:45.028Z,98493.09
2023-03-03T01:19:11.601Z,98486.41
2023-03-03T01:21:38.821Z,98490.81
2023-03-03T01:24:05.643Z,98489.97
2023-03-03T01:26:32.227Z,98490.16
2023-03-03T01:28:58.815Z,98482.81
2023-03-03T01:31:25.521Z,98489.84
2023-03-03T01:33:52.176Z,98492.28
2023-03-03T01:36:24.652Z,98489.34
2023-03-03T01:38:51.431Z,98497.34
2023-03-03T01:41:18.512Z,98494.06
2023-03-03T01:43:49.241Z,98491.94
2023-03-03T01:46:37.056Z,98493.72
2023-03-03T01:49:12.774Z,98492.41
2023-03-03T01:51:47.984Z,98487.19
2023-03-03T01:54:21.805Z,98489.34
2023-03-03T01:56:50.038Z,98487.72
2023-03-03T01:59:23.658Z,98487.19
2023-03-03T02:01:50.708Z,98481.66
2023-03-03T02:04:17.991Z,98480.00
2023-03-03T02:06:51.094Z,98486.69
2023-03-03T02:09:37.088Z,98483.28
2023-03-03T02:12:08.298Z,98488.16
2023-03-03T02:14:35.417Z,98481.97
2023-03-03T02:17:02.020Z,98476.94
2023-03-03T02:19:52.669Z,98479.53
2023-03-03T02:22:26.347Z,98483.28
2023-03-03T02:25:02.080Z,98484.44
2023-03-03T02:27:33.702Z,98487.69
2023-03-03T02:30:13.897Z,98487.38
2023-03-03T02:32:40.575Z,98488.22
2023-03-03T02:35:29.941Z,98489.50
2023-03-03T02:38:07.727Z,98491.44
2023-03-03T02:40:38.458Z,98487.06
2023-03-03T02:43:07.069Z,98486.56
2023-03-03T02:45:33.758Z,98496.16
2023-03-03T02:48:03.581Z,98491.13
2023-03-03T02:50:30.294Z,98489.28
2023-03-03T02:52:56.859Z,98483.91
2023-03-03T02:55:23.454Z,98490.44
2023-03-03T02:57:49.994Z,98495.19
2023-03-03T03:00:16.755Z,98491.09
2023-03-03T03:02:43.822Z,98494.69
2023-03-03T03:05:10.425Z,98489.31
2023-03-03T03:07:37.012Z,98497.97
2023-03-03T03:10:04.345Z,98491.91
2023-03-03T03:12:31.483Z,98500.06
2023-03-03T03:14:58.131Z,98502.00
2023-03-03T03:17:24.760Z,98499.72
2023-03-03T03:19:51.413Z,98494.50
2023-03-03T03:22:19.507Z,98501.03
2023-03-03T03:24:46.091Z,98499.41
2023-03-03T03:27:12.697Z,98506.69
2023-03-03T03:29:39.274Z,98508.34
2023-03-03T03:32:06.157Z,98501.19
2023-03-03T03:34:32.757Z,98508.03
2023-03-03T03:36:59.388Z,98512.59
2023-03-03T03:39:25.960Z,98515.88
2023-03-03T03:41:52.654Z,98510.75
2023-03-03T03:44:19.278Z,98511.59
2023-03-03T03:46:45.905Z,98515.34
2023-03-03T03:49:12.619Z,98513.19
2023-03-03T03:51:41.487Z,98513.34
2023-03-03T03:54:08.372Z,98517.91
2023-03-03T03:56:35.127Z,98518.72
2023-03-03T03:59:01.820Z,98513.00
2023-03-03T04:01:31.658Z,98527.84
2023-03-03T04:03:58.245Z,98525.06
2023-03-03T04:06:25.144Z,98524.56
2023-03-03T04:08:51.773Z,98533.19
2023-03-03T04:11:18.383Z,98525.59
2023-03-03T04:13:45.083Z,98532.53
2023-03-03T04:16:11.754Z,98529.25
2023-03-03T04:18:38.574Z,98535.75
2023-03-03T04:21:05.557Z,98532.53
2023-03-03T04:23:32.143Z,98538.03
2023-03-03T04:25:58.732Z,98534.44
2023-03-03T04:28:26.438Z,98534.59
2023-03-03T04:30:53.110Z,98539.28
2023-03-03T04:33:19.757Z,98536.34
2023-03-03T04:35:46.417Z,98534.94
2023-03-03T04:38:13.206Z,98538.22
2023-03-03T04:40:42.036Z,98540.44
2023-03-03T04:43:09.873Z,98528.13
2023-03-03T04:45:37.489Z,98533.72
2023-03-03T04:48:04.351Z,98524.56
2023-03-03T04:50:30.970Z,98530.25
2023-03-03T04:52:57.753Z,98530.59
2023-03-03T04:55:24.437Z,98529.59
2023-03-03T04:57:51.268Z,98537.75
2023-03-03T05:00:18.230Z,98541.13
2023-03-03T05:02:45.052Z,98535.66
2023-03-03T05:05:11.730Z,98537.16
2023-03-03T05:07:38.329Z,98540.56
2023-03-03T05:10:06.036Z,98535.34
2023-03-03T05:12:32.691Z,98539.63
2023-03-03T05:14:59.503Z,98536.47
2023-03-03T05:17:26.123Z,98541.38
2023-03-03T05:19:52.728Z,98540.56
2023-03-03T05:22:19.351Z,98542.50
2023-03-03T05:24:49.122Z,98546.94
2023-03-03T05:27:16.900Z,98546.94
2023-03-03T05:29:43.668Z,98557.19
2023-03-03T05:32:10.328Z,98550.41
2023-03-03T05:34:37.308Z,98547.78
2023-03-03T05:37:06.653Z,98553.94
2023-03-03T05:39:34.740Z,98555.53
2023-03-03T05:42:01.731Z,98554.88
2023-03-03T05:44:28.630Z,98555.47
2023-03-03T05:46:57.702Z,98566.94
2023-03-03T05:49:24.963Z,98570.69
2023-03-03T05:51:51.635Z,98571.81
2023-03-03T05:54:18.308Z,98580.78
2023-03-03T05:56:45.030Z,98578.41
2023-03-03T05:59:11.690Z,98581.22
2023-03-03T06:01:38.644Z,98583.81
2023-03-03T06:04:05.360Z,98585.19
2023-03-03T06:06:32.134Z,98584.34
2023-03-03T06:08:58.798Z,98593.13
2023-03-03T06:11:25.385Z,98604.25
2023-03-03T06:13:52.023Z,98611.47
2023-03-03T06:16:19.144Z,98612.13
2023-03-03T06:18:45.944Z,98616.34
2023-03-03T06:21:12.629Z,98611.94
2023-03-03T06:23:39.302Z,98613.44
2023-03-03T06:26:05.909Z,98614.50
2023-03-03T06:28:32.672Z,98619.53
2023-03-03T06:30:59.458Z,98612.09
2023-03-03T06:33:26.213Z,98626.31
2023-03-03T06:35:54.299Z,98622.56
2023-03-03T06:38:20.943Z,98623.75
2023-03-03T06:40:47.790Z,98632.25
2023-03-03T06:43:14.774Z,98625.59
2023-03-03T06:45:41.512Z,98636.28
2023-03-03T06:48:08.166Z,98638.25
2023-03-03T06:50:35.077Z,98641.75
2023-03-03T06:53:12.646Z,98634.16
2023-03-03T06:55:39.772Z,98637.41
2023-03-03T06:58:14.048Z,98640.53
2023-03-03T07:00:44.255Z,98648.13
2023-03-03T07:03:23.538Z,98647.28
2023-03-03T07:05:51.507Z,98650.03
2023-03-03T07:08:20.498Z,98655.47
2023-03-03T07:10:48.423Z,98655.03
2023-03-03T07:13:19.649Z,98662.88
2023-03-03T07:15:48.233Z,98665.72
2023-03-03T07:18:34.288Z,98663.31
2023-03-03T07:21:14.864Z,98670.19
2023-03-03T07:23:43.173Z,98664.03
2023-03-03T07:26:14.619Z,98662.13
2023-03-03T07:28:43.994Z,98663.44
2023-03-03T07:31:31.393Z,98667.13
2023-03-03T07:34:00.005Z,98658.84
2023-03-03T07:36:31.054Z,98657.59
2023-03-03T07:39:01.618Z,98668.38
2023-03-03T07:41:30.894Z,98666.41
2023-03-03T07:44:06.120Z,98662.88
2023-03-03T07:46:49.272Z,98659.91
2023-03-03T07:49:35.996Z,98668.91
2023-03-03T07:52:18.235Z,98668.09
2023-03-03T07:54:46.200Z,98666.13
2023-03-03T07:57:28.140Z,98671.66
2023-03-03T08:00:02.408Z,98673.97
2023-03-03T08:02:40.154Z,98673.91
2023-03-03T08:05:22.245Z,98680.31
2023-03-03T08:07:50.861Z,98673.38
2023-03-03T08:10:33.726Z,98668.41
2023-03-03T08:13:09.039Z,98665.94
2023-03-03T08:15:37.559Z,98665.22
2023-03-03T08:18:19.841Z,98664.69
2023-03-03T08:20:48.451Z,98662.63
2023-03-03T08:23:17.003Z,98662.13
2023-03-03T08:25:44.368Z,98666.03
2023-03-03T08:28:12.575Z,98670.56
2023-03-03T08:30:39.351Z,98674.00
2023-03-03T08:33:06.072Z,98675.88
2023-03-03T08:35:32.807Z,98681.75
2023-03-03T08:37:59.506Z,98683.88
2023-03-03T08:40:26.179Z,98683.06
2023-03-03T08:42:54.411Z,98687.47
2023-03-03T08:45:21.294Z,98682.06
2023-03-03T08:47:47.933Z,98691.66
2023-03-03T08:50:15.355Z,98687.78
2023-03-03T08:52:42.154Z,98694.13
2023-03-03T08:55:09.310Z,98681.88
2023-03-03T08:57:36.125Z,98681.81
2023-03-03T09:00:02.827Z,98684.63
2023-03-03T09:02:29.474Z,98681.06
2023-03-03T09:04:56.122Z,98687.09
2023-03-03T09:07:22.889Z,98681.41
2023-03-03T09:09:49.512Z,98694.38
2023-03-03T09:12:19.592Z,98691.38
2023-03-03T09:14:47.355Z,98690.25
2023-03-03T09:17:32.110Z,98691.97
2023-03-03T09:20:17.626Z,98681.97
2023-03-03T09:22:45.026Z,98681.16
2023-03-03T09:25:22.411Z,98676.28
2023-03-03T09:27:49.122Z,98677.41
2023-03-03T09:30:36.394Z,98677.84
2023-03-03T09:33:21.656Z,98677.81
2023-03-03T09:35:51.889Z,98681.44
2023-03-03T09:38:30.890Z,98670.44
2023-03-03T09:41:12.617Z,98678.34
2023-03-03T09:44:12.264Z,98675.28
2023-03-03T09:47:06.962Z,98681.09
2023-03-03T09:49:42.799Z,98674.63
2023-03-03T09:52:34.442Z,98680.38
2023-03-03T09:55:09.596Z,98684.41
2023-03-03T09:58:10.832Z,98691.16
2023-03-03T10:00:47.301Z,98695.69
2023-03-03T10:03:33.888Z,98706.06
2023-03-03T10:06:16.802Z,98700.59
2023-03-03T10:09:13.984Z,98703.28
2023-03-03T10:12:08.254Z,98706.56
2023-03-03T10:14:46.410Z,98699.84
2023-03-03T10:17:28.408Z,98698.03
2023-03-03T10:20:22.337Z,98695.59
2023-03-03T10:22:55.939Z,98697.63
2023-03-03T10:25:42.323Z,98684.22
2023-03-03T10:28:32.994Z,98687.84
2023-03-03T10:31:06.690Z,98685.59
2023-03-03T10:33:57.813Z,98683.56
2023-03-03T10:36:47.039Z,98687.00
2023-03-03T10:39:20.727Z,98683.75
2023-03-03T10:42:03.261Z,98681.31
2023-03-03T10:44:58.895Z,98682.09
2023-03-03T10:47:46.449Z,98676.81
2023-03-03T10:50:21.545Z,98676.34
2023-03-03T10:52:58.884Z,98664.16
2023-03-03T10:55:26.625Z,98654.59
2023-03-03T10:58:09.603Z,98651.34
2023-03-03T11:00:59.599Z,98647.50
2023-03-03T11:03:49.961Z,98651.72
2023-03-03T11:06:35.071Z,98653.59
2023-03-03T11:09:05.175Z,98658.81
2023-03-03T11:11:37.859Z,98648.63
2023-03-03T11:14:35.283Z,98660.28
2023-03-03T11:17:02.459Z,98652.63
2023-03-03T11:19:59.781Z,98645.09
2023-03-03T11:22:27.400Z,98643.84
2023-03-03T11:25:15.855Z,98634.47
2023-03-03T11:27:58.822Z,98634.31
2023-03-03T11:30:40.784Z,98643.28
2023-03-03T11:33:16.307Z,98633.31
2023-03-03T11:36:09.151Z,98642.47
2023-03-03T11:38:35.713Z,98635.72
2023-03-03T11:41:11.772Z,98635.00
2023-03-03T11:43:43.738Z,98634.56
2023-03-03T11:46:17.056Z,98626.28
2023-03-03T11:48:59.528Z,98617.72
2023-03-03T11:51:50.665Z,98614.38
2023-03-03T11:54:24.886Z,98619.34
2023-03-03T11:56:57.346Z,98615.16
2023-03-03T11:59:34.135Z,98612.59
2023-03-03T12:02:30.417Z,98604.44
2023-03-03T12:05:09.428Z,98598.91
2023-03-03T12:08:04.084Z,98605.78
2023-03-03T12:10:46.080Z,98604.84
2023-03-03T12:13:25.306Z,98597.13
2023-03-03T12:16:07.689Z,98601.09
2023-03-03T12:18:35.299Z,98599.63
2023-03-03T12:21:34.663Z,98595.34
2023-03-03T12:24:27.817Z,98597.69
2023-03-03T12:27:06.507Z,98600.25
2023-03-03T12:29:46.821Z,98594.31
2023-03-03T12:32:27.243Z,98584.66
2023-03-03T12:35:10.362Z,98578.84
2023-03-03T12:37:53.397Z,98574.34
2023-03-03T12:40:27.252Z,98571.94
2023-03-03T12:43:09.018Z,98575.75
2023-03-03T12:45:55.287Z,98567.00
2023-03-03T12:48:33.384Z,98572.00
2023-03-03T12:51:06.821Z,98567.41
2023-03-03T12:53:41.642Z,98572.84
2023-03-03T12:56:11.939Z,98566.97
2023-03-03T12:59:14.781Z,98557.56
2023-03-03T13:01:49.146Z,98556.91
2023-03-03T13:04:31.093Z,98562.00
2023-03-03T13:07:08.618Z,98560.88
2023-03-03T13:09:56.553Z,98560.53
2023-03-03T13:12:45.716Z,98552.38
2023-03-03T13:15:18.484Z,98549.03
2023-03-03T13:18:13.231Z,98554.81
2023-03-03T13:20:56.012Z,98551.16
2023-03-03T13:23:41.908Z,98544.31
2023-03-03T13:26:18.726Z,98562.34
2023-03-03T13:29:19.725Z,98557.28
2023-03-03T13:31:57.154Z,98551.28
2023-03-03T13:34:32.966Z,98558.44
2023-03-03T13:37:08.245Z,98540.09
2023-03-03T13:39:57.681Z,98541.50
2023-03-03T13:42:43.709Z,98540.00
2023-03-03T13:45:35.736Z,98545.53
2023-03-03T13:48:17.986Z,98541.94
2023-03-03T13:50:44.573Z,98538.41
2023-03-03T13:53:41.764Z,98527.78
2023-03-03T13:56:33.246Z,98523.28
2023-03-03T13:59:10.038Z,98525.38
2023-03-03T14:02:04.884Z,98522.25
2023-03-03T14:04:53.192Z,98521.53
2023-03-03T14:07:35.974Z,98515.19
2023-03-03T14:10:15.107Z,98506.19
2023-03-03T14:12:51.708Z,98511.16
2023-03-03T14:15:27.797Z,98505.72
2023-03-03T14:18:18.698Z,98506.66
2023-03-03T14:20:52.192Z,98506.66
2023-03-03T14:23:40.535Z,98502.03
2023-03-03T14:26:10.552Z,98511.38
2023-03-03T14:28:48.338Z,98499.50
2023-03-03T14:31:20.853Z,98503.88
2023-03-03T14:34:14.368Z,98502.97
2023-03-03T14:36:43.401Z,98496.28
2023-03-03T14:39:34.081Z,98500.41
2023-03-03T14:42:05.521Z,98503.66
2023-03-03T14:44:54.916Z,98504.69
2023-03-03T14:47:24.794Z,98516.69
2023-03-03T14:49:51.875Z,98515.06
2023-03-03T14:52:27.190Z,98512.53
2023-03-03T14:55:00.426Z,98505.94
2023-03-03T14:57:51.626Z,98507.22
2023-03-03T15:00:19.177Z,98512.09
2023-03-03T15:03:21.078Z,98516.94
2023-03-03T15:05:51.226Z,98510.47
2023-03-03T15:08:28.399Z,98508.03
2023-03-03T15:10:55.080Z,98506.19
2023-03-03T15:13:21.688Z,98505.72
2023-03-03T15:15:53.619Z,98499.84
2023-03-03T15:18:20.631Z,98501.22
2023-03-03T15:20:56.089Z,98499.50
2023-03-03T15:23:53.148Z,98505.03
2023-03-03T15:26:29.974Z,98507.34
2023-03-03T15:29:07.880Z,98507.09
2023-03-03T15:32:01.080Z,98506.28
2023-03-03T15:34:39.864Z,98507.69
2023-03-03T15:37:21.836Z,98512.19
2023-03-03T15:40:14.147Z,98505.50
2023-03-03T15:42:52.807Z,98505.25
2023-03-03T15:45:33.695Z,98510.53
2023-03-03T15:48:20.205Z,98512.28
2023-03-03T15:51:03.440Z,98511.19
2023-03-03T15:53:46.487Z,98507.75
2023-03-03T15:56:26.262Z,98506.00
2023-03-03T15:58:53.851Z,98520.22
2023-03-03T16:01:26.387Z,98516.63
2023-03-03T16:04:13.436Z,98518.38
2023-03-03T16:07:05.431Z,98515.81
2023-03-03T16:09:52.228Z,98516.84
2023-03-03T16:12:19.740Z,98515.53
2023-03-03T16:15:01.694Z,98524.53
2023-03-03T16:17:44.400Z,98517.78
2023-03-03T16:20:27.212Z,98524.41
2023-03-03T16:23:23.066Z,98535.72
2023-03-03T16:26:07.619Z,98536.81
2023-03-03T16:28:34.247Z,98540.22
2023-03-03T16:31:02.905Z,98537.97
2023-03-03T16:33:31.506Z,98538.41
2023-03-03T16:36:13.386Z,98541.06
2023-03-03T16:38:44.047Z,98543.94
2023-03-03T16:41:21.326Z,98547.72
2023-03-03T16:44:15.821Z,98551.41
2023-03-03T16:46:46.469Z,98557.81
2023-03-03T16:49:37.816Z,98564.16
2023-03-03T16:52:25.828Z,98558.88
2023-03-03T16:54:59.457Z,98567.59
2023-03-03T16:57:28.070Z,98565.44
2023-03-03T17:00:19.106Z,98566.69
2023-03-03T17:03:16.188Z,98576.94
2023-03-03T17:05:52.108Z,98573.72
2023-03-03T17:08:33.367Z,98580.91
2023-03-03T17:11:24.911Z,98578.50
2023-03-03T17:14:11.670Z,98578.28
2023-03-03T17:16:58.320Z,98584.84
2023-03-03T17:20:00.777Z,98591.56
2023-03-03T17:22:50.955Z,98601.72
2023-03-03T17:25:18.577Z,98597.28
2023-03-03T17:28:00.369Z,98598.53
2023-03-03T17:30:44.792Z,98608.13
2023-03-03T17:33:26.784Z,98614.63
2023-03-03T17:36:09.861Z,98611.19
2023-03-03T17:39:07.099Z,98611.81
2023-03-03T17:41:50.988Z,98618.28
2023-03-03T17:44:30.430Z,98623.97
2023-03-03T17:47:02.392Z,98627.25
2023-03-03T17:49:59.701Z,98629.50
2023-03-03T17:52:43.156Z,98635.81
2023-03-03T17:55:26.188Z,98641.53
2023-03-03T17:58:28.108Z,98651.28
2023-03-03T18:01:14.620Z,98649.25
2023-03-03T18:03:42.358Z,98652.72
2023-03-03T18:06:16.372Z,98660.03
2023-03-03T18:09:13.649Z,98652.53
2023-03-03T18:11:58.190Z,98662.28
2023-03-03T18:14:45.737Z,98662.28
2023-03-03T18:17:35.470Z,98668.59
2023-03-03T18:20:22.587Z,98668.78
2023-03-03T18:22:51.501Z,98667.75
2023-03-03T18:25:21.785Z,98668.19
2023-03-03T18:28:08.312Z,98672.84
2023-03-03T18:30:56.179Z,98675.88
2023-03-03T18:33:43.834Z,98680.16
2023-03-03T18:36:26.857Z,98680.50
2023-03-03T18:38:56.700Z,98688.16
2023-03-03T18:41:26.744Z,98683.09
2023-03-03T18:43:54.961Z,98688.13
2023-03-03T18:46:22.757Z,98686.09
2023-03-03T18:48:53.220Z,98691.94
2023-03-03T18:51:36.167Z,98686.03
2023-03-03T18:54:30.892Z,98684.16
2023-03-03T18:56:57.957Z,98694.44
2023-03-03T18:59:48.530Z,98695.56
2023-03-03T19:02:16.185Z,98691.91
2023-03-03T19:04:48.575Z,98696.53
2023-03-03T19:07:26.715Z,98689.28
2023-03-03T19:09:58.058Z,98697.03
2023-03-03T19:12:57.948Z,98692.66
2023-03-03T19:15:46.918Z,98702.34
2023-03-03T19:18:19.205Z,98697.47
2023-03-03T19:20:52.248Z,98693.56
2023-03-03T19:23:24.272Z,98696.44
2023-03-03T19:26:21.448Z,98700.91
2023-03-03T19:29:08.776Z,98695.31
2023-03-03T19:31:47.668Z,98694.81
2023-03-03T19:34:29.587Z,98690.94
2023-03-03T19:37:26.786Z,98693.31
2023-03-03T19:40:15.196Z,98690.59
2023-03-03T19:42:49.036Z,98684.28
2023-03-03T19:45:29.932Z,98695.44
2023-03-03T19:48:09.077Z,98689.66
2023-03-03T19:50:53.898Z,98699.56
2023-03-03T19:53:27.770Z,98696.81
2023-03-03T19:56:17.215Z,98693.56
2023-03-03T19:59:05.802Z,98690.94
2023-03-03T20:02:03.576Z,98695.09
2023-03-03T20:05:02.850Z,98701.06
2023-03-03T20:07:53.805Z,98706.16
2023-03-03T20:10:38.724Z,98711.31
2023-03-03T20:13:25.406Z,98709.13
2023-03-03T20:16:27.788Z,98713.47
2023-03-03T20:19:09.050Z,98710.56
2023-03-03T20:22:02.903Z,98700.34
2023-03-03T20:24:55.417Z,98696.28
2023-03-03T20:27:29.309Z,98696.78
2023-03-03T20:30:08.403Z,98696.59
2023-03-03T20:32:40.447Z,98701.41
2023-03-03T20:35:23.420Z,98702.47
2023-03-03T20:38:06.885Z,98708.59
2023-03-03T20:40:58.270Z,98717.72
2023-03-03T20:43:50.442Z,98713.09
2023-03-03T20:46:40.455Z,98710.28
2023-03-03T20:49:17.881Z,98712.28
2023-03-03T20:52:08.255Z,98718.25
2023-03-03T20:54:49.186Z,98716.41
2023-03-03T20:57:41.409Z,98714.44
2023-03-03T21:00:14.857Z,98713.00
2023-03-03T21:03:00.296Z,98723.47
2023-03-03T21:05:27.103Z,98725.63
2023-03-03T21:07:58.805Z,98726.78
2023-03-03T21:10:28.484Z,98736.97
2023-03-03T21:12:57.228Z,98728.78
2023-03-03T21:15:26.852Z,98729.97
2023-03-03T21:17:55.025Z,98735.69
2023-03-03T21:20:31.856Z,98731.59
2023-03-03T21:23:00.260Z,98734.22
2023-03-03T21:25:44.857Z,98728.97
2023-03-03T21:28:17.958Z,98729.16
2023-03-03T21:31:01.288Z,98725.88
2023-03-03T21:33:44.160Z,98721.16
2023-03-03T21:36:13.802Z,98726.59
2023-03-03T21:38:40.934Z,98728.78
2023-03-03T21:41:09.269Z,98729.41
2023-03-03T21:43:41.346Z,98727.94
2023-03-03T21:46:08.376Z,98727.31
2023-03-03T21:48:35.175Z,98721.75
2023-03-03T21:51:02.157Z,98730.13
2023-03-03T21:53:29.600Z,98726.38
2023-03-03T21:55:56.440Z,98718.69
2023-03-03T21:58:23.170Z,98733.25
2023-03-03T22:00:49.805Z,98731.78
2023-03-03T22:03:20.013Z,98723.44
2023-03-03T22:05:49.111Z,98733.75
2023-03-03T22:08:22.645Z,98732.94
2023-03-03T22:10:56.073Z,98731.47
2023-03-03T22:13:24.533Z,98733.47
2023-03-03T22:15:52.189Z,98729.22
2023-03-03T22:18:19.779Z,98736.75
2023-03-03T22:20:47.523Z,98734.44
2023-03-03T22:23:15.149Z,98738.72
2023-03-03T22:25:42.306Z,98738.88
2023-03-03T22:28:09.439Z,98738.25
2023-03-03T22:30:37.227Z,98738.56
2023-03-03T22:33:04.152Z,98740.56
2023-03-03T22:35:31.177Z,98744.97
2023-03-03T22:37:58.130Z,98748.94
2023-03-03T22:40:24.985Z,98745.69
2023-03-03T22:42:51.797Z,98745.19
2023-03-03T22:45:18.464Z,98748.78
2023-03-03T22:47:45.140Z,98738.81
2023-03-03T22:50:12.518Z,98745.38
2023-03-03T22:52:39.152Z,98741.97
2023-03-03T22:55:09.667Z,98746.69
2023-03-03T22:57:36.247Z,98737.84
2023-03-03T23:00:03.448Z,98738.19
2023-03-03T23:02:30.139Z,98737.34
2023-03-03T23:05:01.107Z,98735.38
2023-03-03T23:07:29.241Z,98739.16
2023-03-03T23:09:56.173Z,98742.09
2023-03-03T23:12:23.249Z,98733.75
2023-03-03T23:14:49.856Z,98739.94
2023-03-03T23:17:16.542Z,98737.16
2023-03-03T23:19:46.169Z,98742.09
2023-03-03T23:22:13.694Z,98733.41
2023-03-03T23:24:41.090Z,98734.38
2023-03-03T23:27:09.271Z,98738.81
2023-03-03T23:29:36.317Z,98732.63
2023-03-03T23:32:04.462Z,98738.13
2023-03-03T23:34:32.297Z,98745.97
2023-03-03T23:36:58.911Z,98738.13
2023-03-03T23:39:25.553Z,98746.94
2023-03-03T23:41:52.099Z,98743.00
2023-03-03T23:44:18.805Z,98740.72
2023-03-03T23:46:45.530Z,98735.97
2023-03-03T23:49:12.201Z,98737.44
2023-03-03T23:51:38.835Z,98744.09
2023-03-03T23:54:05.565Z,98735.75
2023-03-03T23:56:32.150Z,98739.50
2023-03-03T23:58:58.770Z,98735.59
